createdAt,value
2022-11-19T00:01:28.311Z,96117.00
2022-11-19T00:03:55.627Z,96119.00
2022-11-19T00:06:27.400Z,96122.00
2022-11-19T00:08:55.253Z,96121.00
2022-11-19T00:11:46.505Z,96117.00
2022-11-19T00:14:15.883Z,96119.00
2022-11-19T00:16:44.296Z,96123.00
2022-11-19T00:19:11.599Z,96121.00
2022-11-19T00:21:38.808Z,96122.00
2022-11-19T00:24:06.140Z,96125.00
2022-11-19T00:26:33.275Z,96125.00
2022-11-19T00:29:00.103Z,96128.00
2022-11-19T00:31:26.932Z,96123.00
2022-11-19T00:33:54.834Z,96121.00
2022-11-19T00:36:22.715Z,96118.00
2022-11-19T00:38:49.601Z,96118.00
2022-11-19T00:41:16.379Z,96123.00
2022-11-19T00:43:49.674Z,96121.00
2022-11-19T00:46:28.189Z,96121.00
2022-11-19T00:48:57.258Z,96119.00
2022-11-19T00:51:26.768Z,96120.00
2022-11-19T00:53:53.722Z,96123.00
2022-11-19T00:56:23.438Z,96118.00
2022-11-19T00:58:50.913Z,96108.00
2022-11-19T01:01:20.885Z,96120.00
2022-11-19T01:03:48.419Z,96114.00
2022-11-19T01:06:19.562Z,96118.00
2022-11-19T01:08:47.891Z,96112.00
2022-11-19T01:11:33.929Z,96119.00
2022-11-19T01:14:01.484Z,96116.00
2022-11-19T01:16:37.969Z,96124.00
2022-11-19T01:19:06.955Z,96123.00
2022-11-19T01:21:36.408Z,96121.00
2022-11-19T01:24:04.725Z,96123.00
2022-11-19T01:26:32.283Z,96126.00
2022-11-19T01:28:59.566Z,96127.00
2022-11-19T01:31:29.198Z,96136.00
2022-11-19T01:33:57.347Z,96141.00
2022-11-19T01:36:27.366Z,96133.00
2022-11-19T01:38:55.165Z,96140.00
2022-11-19T01:41:28.809Z,96134.00
2022-11-19T01:44:02.257Z,96141.00
2022-11-19T01:46:35.610Z,96145.00
2022-11-19T01:49:18.178Z,96148.00
2022-11-19T01:52:03.570Z,96147.00
2022-11-19T01:54:35.770Z,96151.00
2022-11-19T01:57:09.801Z,96144.00
2022-11-19T01:59:38.094Z,96146.00
2022-11-19T02:02:05.287Z,96149.00
2022-11-19T02:04:37.869Z,96150.00
2022-11-19T02:07:04.670Z,96146.00
2022-11-19T02:09:32.968Z,96146.00
2022-11-19T02:12:27.854Z,96153.00
2022-11-19T02:15:19.324Z,96157.00
2022-11-19T02:18:18.239Z,96147.00
2022-11-19T02:21:01.958Z,96154.00
2022-11-19T02:24:18.811Z,96164.00
2022-11-19T02:27:18.222Z,96156.00
2022-11-19T02:30:10.217Z,96161.00
2022-11-19T02:33:09.810Z,96159.00
2022-11-19T02:36:01.795Z,96157.00
2022-11-19T02:38:38.887Z,96159.00
2022-11-19T02:42:01.278Z,96162.00
2022-11-19T02:45:17.035Z,96157.00
2022-11-19T02:48:02.423Z,96159.00
2022-11-19T02:50:53.283Z,96160.00
2022-11-19T02:56:49.338Z,96156.00
2022-11-19T03:00:00.010Z,96150.00
2022-11-19T03:03:00.990Z,96155.00
2022-11-19T03:05:34.478Z,96155.00
2022-11-19T03:08:01.787Z,96152.00
2022-11-19T03:11:08.198Z,96152.00
2022-11-19T03:14:39.710Z,96152.00
2022-11-19T03:17:39.532Z,96154.00
2022-11-19T03:20:38.822Z,96150.00
2022-11-19T03:23:21.896Z,96153.00
2022-11-19T03:26:33.101Z,96156.00
2022-11-19T03:29:13.207Z,96153.00
2022-11-19T03:31:50.624Z,96154.00
2022-11-19T03:34:26.341Z,96159.00
2022-11-19T03:36:59.597Z,96154.00
2022-11-19T03:39:32.405Z,96155.00
2022-11-19T03:42:12.496Z,96166.00
2022-11-19T03:44:50.124Z,96151.00
2022-11-19T03:47:35.807Z,96156.00
2022-11-19T03:50:51.591Z,96150.00
2022-11-19T03:53:23.051Z,96157.00
2022-11-19T03:56:11.895Z,96157.00
2022-11-19T03:58:44.972Z,96155.00
2022-11-19T04:01:12.101Z,96155.00
2022-11-19T04:03:39.074Z,96153.00
2022-11-19T04:06:06.565Z,96162.00
2022-11-19T04:08:33.642Z,96164.00
2022-11-19T04:13:26.202Z,96163.00
2022-11-19T04:15:52.930Z,96161.00
2022-11-19T04:18:19.682Z,96166.00
2022-11-19T04:20:46.458Z,96158.00
2022-11-19T04:23:13.196Z,96157.00
2022-11-19T04:25:41.297Z,96148.00
2022-11-19T04:28:08.060Z,96152.00
2022-11-19T04:30:34.792Z,96158.00
2022-11-19T04:33:01.540Z,96169.00
2022-11-19T04:35:28.309Z,96172.00
2022-11-19T04:37:55.058Z,96173.00
2022-11-19T04:40:21.789Z,96170.00
2022-11-19T04:42:48.527Z,96178.00
2022-11-19T04:45:15.353Z,96188.00
2022-11-19T04:47:42.093Z,96182.00
2022-11-19T04:50:09.311Z,96182.00
2022-11-19T04:52:40.592Z,96191.00
2022-11-19T04:55:08.558Z,96188.00
2022-11-19T05:00:03.917Z,96172.00
2022-11-19T05:02:30.651Z,96171.00
2022-11-19T05:04:57.454Z,96176.00
2022-11-19T05:07:24.295Z,96178.00
2022-11-19T05:09:51.057Z,96179.00
2022-11-19T05:12:17.778Z,96181.00
2022-11-19T05:14:45.579Z,96174.00
2022-11-19T05:17:12.298Z,96176.00
2022-11-19T05:19:39.075Z,96192.00
2022-11-19T05:22:05.800Z,96188.00
2022-11-19T05:24:32.533Z,96188.00
2022-11-19T05:26:59.250Z,96180.00
2022-11-19T05:29:26.013Z,96183.00
2022-11-19T05:31:52.736Z,96187.00
2022-11-19T05:34:19.485Z,96179.00
2022-11-19T05:36:46.247Z,96181.00
2022-11-19T05:39:17.420Z,96179.00
2022-11-19T05:41:48.218Z,96175.00
2022-11-19T05:44:14.952Z,96175.00
2022-11-19T05:46:41.686Z,96179.00
2022-11-19T05:49:08.432Z,96177.00
2022-11-19T05:51:35.338Z,96174.00
2022-11-19T05:54:02.320Z,96161.00
2022-11-19T05:56:29.050Z,96172.00
2022-11-19T05:58:55.801Z,96181.00
2022-11-19T06:01:30.638Z,96180.00
2022-11-19T06:03:57.489Z,96186.00
2022-11-19T06:06:25.394Z,96180.00
2022-11-19T06:08:52.196Z,96184.00
2022-11-19T06:11:38.033Z,96194.00
2022-11-19T06:14:04.834Z,96201.00
2022-11-19T06:16:31.646Z,96196.00
2022-11-19T06:18:58.388Z,96201.00
2022-11-19T06:21:25.121Z,96198.00
2022-11-19T06:23:51.891Z,96206.00
2022-11-19T06:26:27.586Z,96205.00
2022-11-19T06:28:55.588Z,96209.00
2022-11-19T06:31:22.794Z,96213.00
2022-11-19T06:33:50.016Z,96203.00
2022-11-19T06:36:16.863Z,96205.00
2022-11-19T06:38:43.598Z,96207.00
2022-11-19T06:41:10.373Z,96211.00
2022-11-19T06:43:37.133Z,96210.00
2022-11-19T06:46:03.924Z,96216.00
2022-11-19T06:48:30.975Z,96234.00
2022-11-19T06:50:57.797Z,96230.00
2022-11-19T06:53:33.410Z,96236.00
2022-11-19T06:56:14.556Z,96240.00
2022-11-19T06:58:54.925Z,96236.00
2022-11-19T07:01:26.748Z,96239.00
2022-11-19T07:04:00.570Z,96245.00
2022-11-19T07:06:35.022Z,96238.00
2022-11-19T07:09:05.252Z,96244.00
2022-11-19T07:11:43.358Z,96248.00
2022-11-19T07:14:22.805Z,96257.00
2022-11-19T07:19:55.780Z,96263.00
2022-11-19T07:22:51.835Z,96266.00
2022-11-19T07:25:20.650Z,96272.00
2022-11-19T07:27:47.613Z,96275.00
2022-11-19T07:30:17.793Z,96275.00
2022-11-19T07:32:44.673Z,96270.00
2022-11-19T07:35:11.889Z,96261.00
2022-11-19T07:37:38.949Z,96274.00
2022-11-19T07:40:06.818Z,96274.00
2022-11-19T07:42:53.073Z,96278.00
2022-11-19T07:45:22.216Z,96289.00
2022-11-19T07:47:49.479Z,96293.00
2022-11-19T07:50:17.652Z,96288.00
2022-11-19T07:52:44.744Z,96297.00
2022-11-19T07:55:11.547Z,96298.00
2022-11-19T07:57:38.407Z,96301.00
2022-11-19T08:00:07.293Z,96294.00
2022-11-19T08:02:34.043Z,96291.00
2022-11-19T08:05:00.786Z,96290.00
2022-11-19T08:07:27.551Z,96298.00
2022-11-19T08:09:54.388Z,96299.00
2022-11-19T08:12:21.135Z,96301.00
2022-11-19T08:14:47.892Z,96303.00
2022-11-19T08:17:33.024Z,96301.00
2022-11-19T08:19:59.778Z,96307.00
2022-11-19T08:22:26.550Z,96300.00
2022-11-19T08:24:53.280Z,96307.00
2022-11-19T08:27:20.097Z,96305.00
2022-11-19T08:29:46.902Z,96301.00
2022-11-19T08:32:13.644Z,96314.00
2022-11-19T08:34:40.404Z,96321.00
2022-11-19T08:37:07.154Z,96313.00
2022-11-19T08:39:33.889Z,96315.00
2022-11-19T08:42:18.835Z,96322.00
2022-11-19T08:44:45.571Z,96326.00
2022-11-19T08:47:12.383Z,96324.00
2022-11-19T08:49:39.126Z,96333.00
2022-11-19T08:52:05.853Z,96330.00
2022-11-19T08:54:32.686Z,96333.00
2022-11-19T08:56:59.723Z,96333.00
2022-11-19T08:59:26.490Z,96335.00
2022-11-19T09:01:53.223Z,96333.00
2022-11-19T09:04:20.418Z,96328.00
2022-11-19T09:06:47.397Z,96326.00
2022-11-19T09:09:14.314Z,96330.00
2022-11-19T09:11:42.898Z,96324.00
2022-11-19T09:14:11.300Z,96337.00
2022-11-19T09:16:38.390Z,96339.00
2022-11-19T09:19:05.134Z,96342.00
2022-11-19T09:21:31.919Z,96344.00
2022-11-19T09:23:58.665Z,96344.00
2022-11-19T09:26:25.395Z,96340.00
2022-11-19T09:28:52.250Z,96339.00
2022-11-19T09:31:20.272Z,96338.00
2022-11-19T09:33:51.554Z,96341.00
2022-11-19T09:36:19.694Z,96344.00
2022-11-19T09:38:48.021Z,96354.00
2022-11-19T09:41:17.737Z,96348.00
2022-11-19T09:44:22.671Z,96352.00
2022-11-19T09:47:20.161Z,96346.00
2022-11-19T09:50:14.241Z,96353.00
2022-11-19T09:52:57.458Z,96362.00
2022-11-19T09:55:31.788Z,96368.00
2022-11-19T09:58:00.569Z,96360.00
2022-11-19T10:00:30.658Z,96354.00
2022-11-19T10:02:59.438Z,96361.00
2022-11-19T10:05:54.649Z,96355.00
2022-11-19T10:09:06.275Z,96362.00
2022-11-19T10:12:19.753Z,96367.00
2022-11-19T10:15:53.378Z,96366.00
2022-11-19T10:18:43.413Z,96354.00
2022-11-19T10:21:29.582Z,96361.00
2022-11-19T10:24:21.092Z,96352.00
2022-11-19T10:26:58.497Z,96351.00
2022-11-19T10:29:29.525Z,96361.00
2022-11-19T10:32:28.783Z,96364.00
2022-11-19T10:35:01.650Z,96365.00
2022-11-19T10:37:39.485Z,96353.00
2022-11-19T10:40:18.385Z,96363.00
2022-11-19T10:42:52.728Z,96348.00
2022-11-19T10:45:28.643Z,96344.00
2022-11-19T10:48:09.186Z,96353.00
2022-11-19T10:50:36.674Z,96346.00
2022-11-19T10:53:29.588Z,96343.00
2022-11-19T10:56:13.563Z,96342.00
2022-11-19T10:58:50.115Z,96332.00
2022-11-19T11:01:33.997Z,96332.00
2022-11-19T11:04:26.177Z,96329.00
2022-11-19T11:07:03.864Z,96332.00
2022-11-19T11:09:36.401Z,96329.00
2022-11-19T11:12:40.869Z,96320.00
2022-11-19T11:15:26.672Z,96314.00
2022-11-19T11:18:06.754Z,96310.00
2022-11-19T11:20:33.875Z,96311.00
2022-11-19T11:23:18.218Z,96301.00
2022-11-19T11:25:53.562Z,96303.00
2022-11-19T11:28:23.151Z,96310.00
2022-11-19T11:31:04.218Z,96306.00
2022-11-19T11:33:39.040Z,96313.00
2022-11-19T11:36:16.390Z,96303.00
2022-11-19T11:38:46.528Z,96310.00
2022-11-19T11:42:03.784Z,96308.00
2022-11-19T11:44:17.663Z,96314.00
2022-11-19T11:46:54.753Z,96319.00
2022-11-19T11:49:36.567Z,96319.00
2022-11-19T11:52:09.457Z,96315.00
2022-11-19T11:54:53.409Z,96305.00
2022-11-19T11:57:30.659Z,96300.00
2022-11-19T12:00:00.112Z,96312.00
2022-11-19T12:02:34.036Z,96301.00
2022-11-19T12:05:16.264Z,96307.00
2022-11-19T12:08:04.270Z,96299.00
2022-11-19T12:10:52.117Z,96306.00
2022-11-19T12:13:51.087Z,96308.00
2022-11-19T12:16:49.822Z,96310.00
2022-11-19T12:19:47.042Z,96306.00
2022-11-19T12:22:50.106Z,96306.00
2022-11-19T12:25:32.176Z,96298.00
2022-11-19T12:28:36.777Z,96310.00
2022-11-19T12:31:36.807Z,96315.00
2022-11-19T12:34:44.406Z,96311.00
2022-11-19T12:37:26.251Z,96307.00
2022-11-19T12:40:41.183Z,96311.00
2022-11-19T12:43:17.673Z,96314.00
2022-11-19T12:45:59.276Z,96312.00
2022-11-19T12:49:00.944Z,96315.00
2022-11-19T12:51:58.834Z,96320.00
2022-11-19T12:54:44.549Z,96325.00
2022-11-19T12:57:31.245Z,96327.00
2022-11-19T13:00:20.318Z,96324.00
2022-11-19T13:03:05.857Z,96308.00
2022-11-19T13:05:52.726Z,96313.00
2022-11-19T13:08:41.591Z,96305.00
2022-11-19T13:11:36.323Z,96301.00
2022-11-19T13:14:39.658Z,96305.00
2022-11-19T13:17:34.946Z,96305.00
2022-11-19T13:20:08.042Z,96315.00
2022-11-19T13:22:41.300Z,96303.00
2022-11-19T13:25:24.182Z,96303.00
2022-11-19T13:27:53.672Z,96298.00
2022-11-19T13:30:26.722Z,96295.00
2022-11-19T13:33:17.932Z,96297.00
2022-11-19T13:36:08.872Z,96301.00
2022-11-19T13:38:45.249Z,96302.00
2022-11-19T13:41:59.325Z,96295.00
2022-11-19T13:44:41.349Z,96302.00
2022-11-19T13:47:22.715Z,96306.00
2022-11-19T13:49:56.633Z,96301.00
2022-11-19T13:52:38.201Z,96299.00
2022-11-19T13:55:23.157Z,96308.00
2022-11-19T13:57:50.145Z,96308.00
2022-11-19T14:00:26.080Z,96307.00
2022-11-19T14:03:42.049Z,96297.00
2022-11-19T14:06:27.106Z,96310.00
2022-11-19T14:09:05.773Z,96316.00
2022-11-19T14:12:01.771Z,96315.00
2022-11-19T14:14:55.951Z,96314.00
2022-11-19T14:18:18.232Z,96315.00
2022-11-19T14:21:04.636Z,96319.00
2022-11-19T14:24:07.490Z,96316.00
2022-11-19T14:26:40.249Z,96315.00
2022-11-19T14:29:19.363Z,96323.00
2022-11-19T14:32:05.215Z,96330.00
2022-11-19T14:35:28.759Z,96325.00
2022-11-19T14:38:02.298Z,96324.00
2022-11-19T14:40:32.255Z,96332.00
2022-11-19T14:43:20.380Z,96333.00
2022-11-19T14:46:04.732Z,96332.00
2022-11-19T14:48:40.650Z,96330.00
2022-11-19T14:51:15.911Z,96338.00
2022-11-19T14:53:57.011Z,96337.00
2022-11-19T14:56:24.209Z,96335.00
2022-11-19T14:58:55.478Z,96336.00
2022-11-19T15:01:23.173Z,96336.00
2022-11-19T15:04:01.430Z,96340.00
2022-11-19T15:06:34.269Z,96347.00
2022-11-19T15:09:02.088Z,96345.00
2022-11-19T15:11:56.815Z,96344.00
2022-11-19T15:14:29.370Z,96348.00
2022-11-19T15:17:00.587Z,96351.00
2022-11-19T15:20:04.200Z,96346.00
2022-11-19T15:22:55.961Z,96354.00
2022-11-19T15:25:31.772Z,96353.00
2022-11-19T15:28:39.533Z,96343.00
2022-11-19T15:31:26.393Z,96352.00
2022-11-19T15:34:38.486Z,96354.00
2022-11-19T15:37:20.017Z,96357.00
2022-11-19T15:39:54.418Z,96364.00
2022-11-19T15:42:44.675Z,96367.00
2022-11-19T15:45:18.647Z,96367.00
2022-11-19T15:48:59.344Z,96361.00
2022-11-19T15:51:26.486Z,96369.00
2022-11-19T15:54:05.894Z,96361.00
2022-11-19T15:56:38.302Z,96359.00
2022-11-19T15:59:08.290Z,96373.00
2022-11-19T16:01:35.763Z,96380.00
2022-11-19T16:04:16.295Z,96375.00
2022-11-19T16:06:49.025Z,96380.00
2022-11-19T16:09:24.892Z,96379.00
2022-11-19T16:12:11.164Z,96385.00
2022-11-19T16:14:56.258Z,96373.00
2022-11-19T16:17:41.710Z,96378.00
2022-11-19T16:20:10.419Z,96378.00
2022-11-19T16:22:56.275Z,96380.00
2022-11-19T16:25:31.922Z,96375.00
2022-11-19T16:28:03.392Z,96380.00
2022-11-19T16:30:41.350Z,96374.00
2022-11-19T16:33:23.810Z,96387.00
2022-11-19T16:35:53.513Z,96389.00
2022-11-19T16:38:27.933Z,96384.00
2022-11-19T16:41:15.235Z,96388.00
2022-11-19T16:43:48.550Z,96391.00
2022-11-19T16:46:18.774Z,96390.00
2022-11-19T16:48:48.501Z,96394.00
2022-11-19T16:51:40.171Z,96395.00
2022-11-19T16:54:09.305Z,96398.00
2022-11-19T16:56:45.312Z,96395.00
2022-11-19T16:59:23.775Z,96397.00
2022-11-19T17:01:54.992Z,96397.00
2022-11-19T17:04:25.914Z,96395.00
2022-11-19T17:06:52.942Z,96408.00
2022-11-19T17:09:44.706Z,96402.00
2022-11-19T17:12:29.403Z,96410.00
2022-11-19T17:14:59.214Z,96406.00
2022-11-19T17:17:41.944Z,96419.00
2022-11-19T17:20:27.538Z,96429.00
2022-11-19T17:22:54.487Z,96424.00
2022-11-19T17:25:21.365Z,96429.00
2022-11-19T17:27:57.786Z,96432.00
2022-11-19T17:30:27.701Z,96434.00
2022-11-19T17:33:05.721Z,96441.00
2022-11-19T17:35:47.412Z,96442.00
2022-11-19T17:38:27.540Z,96443.00
2022-11-19T17:41:00.699Z,96449.00
2022-11-19T17:43:57.525Z,96455.00
2022-11-19T17:46:28.001Z,96455.00
2022-11-19T17:48:55.303Z,96457.00
2022-11-19T17:51:25.145Z,96454.00
2022-11-19T17:53:53.190Z,96460.00
2022-11-19T17:56:26.342Z,96461.00
2022-11-19T17:58:53.164Z,96464.00
2022-11-19T18:01:20.140Z,96460.00
2022-11-19T18:03:47.638Z,96467.00
2022-11-19T18:06:16.630Z,96459.00
2022-11-19T18:08:44.200Z,96469.00
2022-11-19T18:11:22.429Z,96459.00
2022-11-19T18:13:54.545Z,96470.00
2022-11-19T18:16:24.884Z,96463.00
2022-11-19T18:18:52.523Z,96473.00
2022-11-19T18:21:22.442Z,96468.00
2022-11-19T18:23:51.423Z,96469.00
2022-11-19T18:26:22.337Z,96460.00
2022-11-19T18:28:49.514Z,96460.00
2022-11-19T18:31:22.839Z,96469.00
2022-11-19T18:33:50.316Z,96470.00
2022-11-19T18:36:17.561Z,96463.00
2022-11-19T18:38:44.463Z,96477.00
2022-11-19T18:41:13.016Z,96472.00
2022-11-19T18:43:58.614Z,96476.00
2022-11-19T18:46:26.288Z,96480.00
2022-11-19T18:48:56.271Z,96486.00
2022-11-19T18:51:24.300Z,96488.00
2022-11-19T18:53:51.043Z,96479.00
2022-11-19T18:56:19.431Z,96486.00
2022-11-19T18:58:46.865Z,96485.00
2022-11-19T19:01:16.092Z,96491.00
2022-11-19T19:03:43.214Z,96497.00
2022-11-19T19:06:10.262Z,96491.00
2022-11-19T19:08:37.137Z,96497.00
2022-11-19T19:11:26.912Z,96496.00
2022-11-19T19:13:54.169Z,96493.00
2022-11-19T19:16:21.877Z,96497.00
2022-11-19T19:18:48.761Z,96488.00
2022-11-19T19:21:21.127Z,96497.00
2022-11-19T19:23:48.589Z,96502.00
2022-11-19T19:26:18.402Z,96498.00
2022-11-19T19:28:51.529Z,96502.00
2022-11-19T19:31:20.367Z,96502.00
2022-11-19T19:33:48.201Z,96509.00
2022-11-19T19:36:16.691Z,96500.00
2022-11-19T19:38:44.275Z,96512.00
2022-11-19T19:41:19.594Z,96508.00
2022-11-19T19:43:48.609Z,96508.00
2022-11-19T19:46:18.414Z,96509.00
2022-11-19T19:48:48.313Z,96516.00
2022-11-19T19:51:17.071Z,96528.00
2022-11-19T19:53:44.291Z,96518.00
2022-11-19T19:56:20.695Z,96523.00
2022-11-19T19:58:50.708Z,96527.00
2022-11-19T20:01:20.913Z,96530.00
2022-11-19T20:03:54.097Z,96526.00
2022-11-19T20:06:23.487Z,96531.00
2022-11-19T20:08:50.666Z,96526.00
2022-11-19T20:11:21.373Z,96535.00
2022-11-19T20:13:48.588Z,96529.00
2022-11-19T20:16:24.750Z,96527.00
2022-11-19T20:18:52.784Z,96534.00
2022-11-19T20:21:26.926Z,96536.00
2022-11-19T20:23:54.157Z,96531.00
2022-11-19T20:27:02.305Z,96528.00
2022-11-19T20:30:01.570Z,96536.00
2022-11-19T20:32:35.117Z,96542.00
2022-11-19T20:35:07.592Z,96543.00
2022-11-19T20:37:34.386Z,96544.00
2022-11-19T20:40:01.135Z,96537.00
2022-11-19T20:42:46.694Z,96540.00
2022-11-19T20:45:13.490Z,96541.00
2022-11-19T20:47:40.217Z,96544.00
2022-11-19T20:50:07.677Z,96545.00
2022-11-19T20:52:34.554Z,96549.00
2022-11-19T20:55:06.378Z,96546.00
2022-11-19T20:57:33.616Z,96544.00
2022-11-19T21:00:00.477Z,96543.00
2022-11-19T21:02:27.269Z,96545.00
2022-11-19T21:04:54.367Z,96543.00
2022-11-19T21:07:21.140Z,96547.00
2022-11-19T21:09:47.929Z,96555.00
2022-11-19T21:12:14.682Z,96547.00
2022-11-19T21:14:41.985Z,96546.00
2022-11-19T21:17:08.813Z,96551.00
2022-11-19T21:19:35.916Z,96554.00
2022-11-19T21:22:02.813Z,96553.00
2022-11-19T21:24:29.567Z,96555.00
2022-11-19T21:26:56.324Z,96548.00
2022-11-19T21:29:23.452Z,96558.00
2022-11-19T21:31:50.453Z,96554.00
2022-11-19T21:34:22.467Z,96560.00
2022-11-19T21:36:49.710Z,96559.00
2022-11-19T21:39:17.830Z,96555.00
2022-11-19T21:41:44.620Z,96561.00
2022-11-19T21:44:13.321Z,96558.00
2022-11-19T21:46:43.434Z,96561.00
2022-11-19T21:49:10.195Z,96561.00
2022-11-19T21:51:36.920Z,96553.00
2022-11-19T21:54:03.781Z,96560.00
2022-11-19T21:56:35.450Z,96552.00
2022-11-19T21:59:03.871Z,96556.00
2022-11-19T22:01:30.675Z,96559.00
2022-11-19T22:03:57.461Z,96557.00
2022-11-19T22:06:24.213Z,96548.00
2022-11-19T22:08:50.953Z,96551.00
2022-11-19T22:11:29.834Z,96559.00
2022-11-19T22:14:02.720Z,96554.00
2022-11-19T22:16:31.518Z,96549.00
2022-11-19T22:18:58.298Z,96551.00
2022-11-19T22:21:27.021Z,96547.00
2022-11-19T22:23:53.834Z,96549.00
2022-11-19T22:26:20.848Z,96553.00
2022-11-19T22:28:47.607Z,96549.00
2022-11-19T22:31:15.578Z,96554.00
2022-11-19T22:33:42.370Z,96549.00
2022-11-19T22:36:10.868Z,96547.00
2022-11-19T22:38:39.037Z,96542.00
2022-11-19T22:41:18.815Z,96536.00
2022-11-19T22:43:46.242Z,96541.00
2022-11-19T22:46:14.553Z,96533.00
2022-11-19T22:48:41.666Z,96532.00
2022-11-19T22:51:18.367Z,96541.00
2022-11-19T22:53:45.297Z,96541.00
2022-11-19T22:56:15.955Z,96543.00
2022-11-19T22:58:43.461Z,96552.00
2022-11-19T23:01:25.934Z,96553.00
2022-11-19T23:03:53.849Z,96549.00
2022-11-19T23:06:21.012Z,96552.00
2022-11-19T23:08:47.799Z,96551.00
2022-11-19T23:11:37.572Z,96548.00
2022-11-19T23:14:04.765Z,96552.00
2022-11-19T23:16:31.541Z,96550.00
2022-11-19T23:18:58.570Z,96542.00
2022-11-19T23:21:28.719Z,96542.00
2022-11-19T23:23:57.734Z,96544.00
2022-11-19T23:26:28.882Z,96544.00
2022-11-19T23:28:56.214Z,96546.00
2022-11-19T23:31:27.166Z,96552.00
2022-11-19T23:33:59.097Z,96537.00
2022-11-19T23:36:32.988Z,96536.00
2022-11-19T23:39:01.798Z,96534.00
2022-11-19T23:41:31.463Z,96538.00
2022-11-19T23:43:58.218Z,96542.00
2022-11-19T23:46:33.974Z,96538.00
2022-11-19T23:49:01.747Z,96538.00
2022-11-19T23:51:31.774Z,96549.00
2022-11-19T23:53:59.354Z,96537.00
2022-11-19T23:56:27.067Z,96546.00
2022-11-19T23:58:54.301Z,96550.00
